createdAt,value
2023-05-08T00:00:14.732Z,99139.59
2023-05-08T00:02:19.947Z,99139.59
2023-05-08T00:04:25.451Z,99138.09
2023-05-08T00:06:31.407Z,99138.53
2023-05-08T00:08:39.567Z,99140.28
2023-05-08T00:10:44.986Z,99139.44
2023-05-08T00:12:50.073Z,99142.16
2023-05-08T00:14:55.450Z,99138.78
2023-05-08T00:17:00.672Z,99134.78
2023-05-08T00:19:06.029Z,99144.19
2023-05-08T00:21:11.125Z,99134.97
2023-05-08T00:23:16.187Z,99139.94
2023-05-08T00:25:23.913Z,99140.88
2023-05-08T00:27:29.083Z,99149.47
2023-05-08T00:29:34.484Z,99144.56
2023-05-08T00:31:39.668Z,99150.38
2023-05-08T00:33:44.946Z,99147.97
2023-05-08T00:35:50.209Z,99146.78
2023-05-08T00:37:55.459Z,99151.13
2023-05-08T00:40:00.540Z,99152.94
2023-05-08T00:42:08.863Z,99145.78
2023-05-08T00:44:14.161Z,99152.56
2023-05-08T00:46:19.890Z,99151.75
2023-05-08T00:48:25.990Z,99144.47
2023-05-08T00:50:31.528Z,99149.59
2023-05-08T00:52:37.347Z,99144.50
2023-05-08T00:54:43.318Z,99152.69
2023-05-08T00:56:49.021Z,99149.47
2023-05-08T00:58:57.494Z,99156.88
2023-05-08T01:01:03.856Z,99150.88
2023-05-08T01:03:09.907Z,99146.69
2023-05-08T01:05:15.318Z,99151.03
2023-05-08T01:07:21.533Z,99148.72
2023-05-08T01:09:27.478Z,99146.06
2023-05-08T01:11:39.821Z,99141.03
2023-05-08T01:14:01.511Z,99148.59
2023-05-08T01:16:16.759Z,99149.31
2023-05-08T01:18:31.449Z,99150.38
2023-05-08T01:20:47.885Z,99147.16
2023-05-08T01:23:43.042Z,99153.16
2023-05-08T01:26:14.490Z,99147.97
2023-05-08T01:28:57.356Z,99151.38
2023-05-08T01:31:19.330Z,99152.25
2023-05-08T01:33:33.179Z,99151.28
2023-05-08T01:35:48.094Z,99156.16
2023-05-08T01:38:00.855Z,99151.44
2023-05-08T01:40:20.233Z,99151.28
2023-05-08T01:42:35.889Z,99153.06
2023-05-08T01:44:50.303Z,99160.69
2023-05-08T01:46:56.699Z,99163.34
2023-05-08T01:49:11.764Z,99155.56
2023-05-08T01:51:23.586Z,99161.44
2023-05-08T01:53:33.324Z,99162.31
2023-05-08T01:55:42.521Z,99165.69
2023-05-08T01:57:52.219Z,99164.69
2023-05-08T01:59:59.029Z,99161.34
2023-05-08T02:02:06.029Z,99159.69
2023-05-08T02:04:15.480Z,99163.41
2023-05-08T02:06:25.435Z,99172.03
2023-05-08T02:08:32.391Z,99158.81
2023-05-08T02:10:40.105Z,99162.22
2023-05-08T02:12:47.534Z,99161.50
2023-05-08T02:14:55.687Z,99168.38
2023-05-08T02:17:03.016Z,99170.97
2023-05-08T02:19:10.131Z,99166.06
2023-05-08T02:21:18.230Z,99165.31
2023-05-08T02:23:26.066Z,99170.56
2023-05-08T02:25:33.828Z,99174.78
2023-05-08T02:27:39.877Z,99172.34
2023-05-08T02:29:45.994Z,99170.13
2023-05-08T02:31:52.575Z,99175.22
2023-05-08T02:33:58.310Z,99170.31
2023-05-08T02:36:05.968Z,99181.44
2023-05-08T02:38:17.189Z,99178.28
2023-05-08T02:40:25.443Z,99179.16
2023-05-08T02:42:30.833Z,99170.84
2023-05-08T02:44:37.800Z,99166.03
2023-05-08T02:46:52.352Z,99173.66
2023-05-08T02:49:02.930Z,99176.34
2023-05-08T02:51:22.175Z,99173.72
2023-05-08T02:53:55.986Z,99173.81
2023-05-08T02:56:13.097Z,99172.94
2023-05-08T02:58:23.226Z,99177.25
2023-05-08T03:00:35.446Z,99172.28
2023-05-08T03:02:45.085Z,99168.00
2023-05-08T03:04:56.085Z,99172.22
2023-05-08T03:07:02.284Z,99169.69
2023-05-08T03:09:15.161Z,99173.13
2023-05-08T03:11:27.176Z,99172.22
2023-05-08T03:13:37.247Z,99169.81
2023-05-08T03:15:48.298Z,99170.81
2023-05-08T03:17:58.090Z,99173.50
2023-05-08T03:20:08.413Z,99170.91
2023-05-08T03:22:14.337Z,99175.31
2023-05-08T03:24:25.435Z,99169.47
2023-05-08T03:26:31.255Z,99175.34
2023-05-08T03:28:38.408Z,99165.28
2023-05-08T03:30:45.263Z,99173.56
2023-05-08T03:32:54.190Z,99170.13
2023-05-08T03:35:03.962Z,99185.22
2023-05-08T03:37:09.413Z,99186.13
2023-05-08T03:39:15.058Z,99186.22
2023-05-08T03:41:22.876Z,99187.00
2023-05-08T03:43:28.900Z,99185.31
2023-05-08T03:45:39.256Z,99183.50
2023-05-08T03:47:45.221Z,99173.38
2023-05-08T03:49:53.285Z,99176.75
2023-05-08T03:51:59.819Z,99181.81
2023-05-08T03:54:05.397Z,99180.94
2023-05-08T03:56:11.017Z,99183.28
2023-05-08T03:58:26.497Z,99174.91
2023-05-08T04:00:52.867Z,99181.78
2023-05-08T04:03:14.314Z,99183.56
2023-05-08T04:05:28.924Z,99184.31
2023-05-08T04:07:43.809Z,99186.81
2023-05-08T04:10:03.113Z,99182.66
2023-05-08T04:12:17.969Z,99191.88
2023-05-08T04:14:33.387Z,99190.13
2023-05-08T04:16:42.920Z,99195.13
2023-05-08T04:18:51.184Z,99198.47
2023-05-08T04:20:58.569Z,99197.72
2023-05-08T04:23:06.911Z,99198.38
2023-05-08T04:25:14.242Z,99207.69
2023-05-08T04:27:19.926Z,99205.72
2023-05-08T04:29:28.026Z,99197.28
2023-05-08T04:31:33.819Z,99203.06
2023-05-08T04:33:39.447Z,99208.03
2023-05-08T04:35:46.206Z,99207.91
2023-05-08T04:37:51.804Z,99209.53
2023-05-08T04:39:57.145Z,99213.63
2023-05-08T04:42:04.863Z,99216.81
2023-05-08T04:44:13.107Z,99215.13
2023-05-08T04:46:21.108Z,99210.88
2023-05-08T04:48:26.601Z,99217.44
2023-05-08T04:50:31.971Z,99206.53
2023-05-08T04:52:37.043Z,99209.81
2023-05-08T04:54:42.578Z,99214.75
2023-05-08T04:56:47.945Z,99220.66
2023-05-08T04:58:53.480Z,99212.06
2023-05-08T05:00:59.187Z,99215.31
2023-05-08T05:03:08.059Z,99219.50
2023-05-08T05:05:14.041Z,99221.91
2023-05-08T05:07:19.541Z,99219.41
2023-05-08T05:09:25.885Z,99223.44
2023-05-08T05:11:31.448Z,99212.41
2023-05-08T05:13:36.614Z,99224.00
2023-05-08T05:15:45.970Z,99227.25
2023-05-08T05:17:52.197Z,99224.75
2023-05-08T05:20:00.444Z,99226.47
2023-05-08T05:22:06.365Z,99226.16
2023-05-08T05:24:12.425Z,99232.56
2023-05-08T05:26:17.707Z,99231.47
2023-05-08T05:28:22.757Z,99228.91
2023-05-08T05:30:28.419Z,99224.59
2023-05-08T05:32:33.657Z,99231.22
2023-05-08T05:34:39.032Z,99230.19
2023-05-08T05:36:47.353Z,99236.97
2023-05-08T05:38:52.481Z,99230.28
2023-05-08T05:40:57.983Z,99234.47
2023-05-08T05:43:03.257Z,99238.34
2023-05-08T05:45:11.723Z,99241.28
2023-05-08T05:47:17.675Z,99245.34
2023-05-08T05:49:22.782Z,99245.09
2023-05-08T05:51:29.438Z,99247.63
2023-05-08T05:53:37.841Z,99248.38
2023-05-08T05:55:44.317Z,99247.16
2023-05-08T05:57:49.367Z,99247.88
2023-05-08T05:59:54.997Z,99250.59
2023-05-08T06:02:02.161Z,99249.00
2023-05-08T06:04:08.250Z,99250.97
2023-05-08T06:06:13.712Z,99251.44
2023-05-08T06:08:19.244Z,99251.06
2023-05-08T06:10:26.985Z,99251.75
2023-05-08T06:12:32.033Z,99252.44
2023-05-08T06:14:38.213Z,99248.06
2023-05-08T06:16:45.133Z,99248.59
2023-05-08T06:18:50.381Z,99250.06
2023-05-08T06:21:00.493Z,99252.16
2023-05-08T06:23:05.708Z,99238.69
2023-05-08T06:25:12.957Z,99246.50
2023-05-08T06:27:20.970Z,99240.09
2023-05-08T06:29:26.268Z,99241.63
2023-05-08T06:31:31.400Z,99242.97
2023-05-08T06:33:36.523Z,99244.72
2023-05-08T06:35:41.584Z,99250.59
2023-05-08T06:37:46.744Z,99248.34
2023-05-08T06:40:03.968Z,99245.84
2023-05-08T06:42:16.840Z,99250.56
2023-05-08T06:44:26.862Z,99248.91
2023-05-08T06:46:32.720Z,99246.00
2023-05-08T06:48:37.834Z,99252.97
2023-05-08T06:50:44.019Z,99239.44
2023-05-08T06:52:49.088Z,99247.63
2023-05-08T06:54:54.154Z,99246.91
2023-05-08T06:56:59.195Z,99242.34
2023-05-08T06:59:08.486Z,99243.44
2023-05-08T07:01:17.840Z,99250.25
2023-05-08T07:03:22.977Z,99247.75
2023-05-08T07:05:28.276Z,99254.69
2023-05-08T07:07:33.329Z,99249.97
2023-05-08T07:09:38.664Z,99253.97
2023-05-08T07:11:44.064Z,99257.06
2023-05-08T07:13:49.157Z,99249.13
2023-05-08T07:15:55.364Z,99259.28
2023-05-08T07:18:03.330Z,99249.63
2023-05-08T07:20:10.801Z,99255.03
2023-05-08T07:22:15.952Z,99252.50
2023-05-08T07:24:21.067Z,99254.47
2023-05-08T07:26:26.202Z,99264.38
2023-05-08T07:28:31.375Z,99257.53
2023-05-08T07:30:36.704Z,99263.53
2023-05-08T07:32:41.916Z,99252.81
2023-05-08T07:34:49.608Z,99249.50
2023-05-08T07:36:55.135Z,99254.69
2023-05-08T07:39:00.143Z,99251.63
2023-05-08T07:41:05.540Z,99250.38
2023-05-08T07:43:10.666Z,99251.81
2023-05-08T07:45:17.028Z,99251.94
2023-05-08T07:47:22.599Z,99249.94
2023-05-08T07:49:27.823Z,99248.00
2023-05-08T07:51:35.471Z,99255.47
2023-05-08T07:53:40.511Z,99259.03
2023-05-08T07:55:45.819Z,99254.94
2023-05-08T07:57:51.217Z,99245.03
2023-05-08T07:59:56.233Z,99249.78
2023-05-08T08:02:01.536Z,99249.88
2023-05-08T08:04:08.433Z,99252.19
2023-05-08T08:06:13.627Z,99255.78
2023-05-08T08:08:21.573Z,99249.84
2023-05-08T08:10:27.466Z,99251.78
2023-05-08T08:12:32.646Z,99240.56
2023-05-08T08:14:37.680Z,99247.31
2023-05-08T08:16:43.107Z,99243.88
2023-05-08T08:18:48.202Z,99247.03
2023-05-08T08:20:53.234Z,99243.59
2023-05-08T08:22:58.751Z,99245.31
2023-05-08T08:25:07.091Z,99240.81
2023-05-08T08:27:12.101Z,99245.84
2023-05-08T08:29:17.692Z,99241.63
2023-05-08T08:31:22.879Z,99243.53
2023-05-08T08:33:29.938Z,99245.72
2023-05-08T08:35:36.234Z,99242.59
2023-05-08T08:37:42.189Z,99233.88
2023-05-08T08:39:48.424Z,99240.63
2023-05-08T08:41:56.305Z,99235.53
2023-05-08T08:44:01.538Z,99240.38
2023-05-08T08:46:14.765Z,99226.91
2023-05-08T08:48:21.928Z,99221.13
2023-05-08T08:50:29.089Z,99221.56
2023-05-08T08:52:42.161Z,99222.13
2023-05-08T08:54:50.081Z,99217.13
2023-05-08T08:56:59.931Z,99218.06
2023-05-08T08:59:05.962Z,99220.47
2023-05-08T09:01:12.297Z,99219.19
2023-05-08T09:03:17.926Z,99214.84
2023-05-08T09:05:26.680Z,99218.63
2023-05-08T09:07:33.047Z,99221.59
2023-05-08T09:09:40.998Z,99218.28
2023-05-08T09:11:48.867Z,99217.59
2023-05-08T09:13:58.264Z,99211.78
2023-05-08T09:16:03.806Z,99216.25
2023-05-08T09:18:09.395Z,99217.78
2023-05-08T09:20:18.453Z,99217.06
2023-05-08T09:22:24.561Z,99220.50
2023-05-08T09:24:31.106Z,99215.56
2023-05-08T09:26:38.660Z,99208.06
2023-05-08T09:28:43.676Z,99216.88
2023-05-08T09:30:57.195Z,99218.22
2023-05-08T09:33:05.613Z,99208.09
2023-05-08T09:35:13.261Z,99210.66
2023-05-08T09:37:19.052Z,99209.53
2023-05-08T09:39:29.569Z,99217.56
2023-05-08T09:41:34.577Z,99214.97
2023-05-08T09:43:39.738Z,99216.25
2023-05-08T09:45:44.809Z,99220.69
2023-05-08T09:47:53.905Z,99212.41
2023-05-08T09:50:03.141Z,99218.94
2023-05-08T09:52:08.597Z,99211.22
2023-05-08T09:54:21.211Z,99219.91
2023-05-08T09:56:38.076Z,99215.41
2023-05-08T09:58:45.448Z,99222.72
2023-05-08T10:00:50.936Z,99227.41
2023-05-08T10:03:03.718Z,99225.84
2023-05-08T10:05:27.309Z,99227.44
2023-05-08T10:07:33.511Z,99225.13
2023-05-08T10:09:49.932Z,99222.53
2023-05-08T10:11:56.788Z,99232.81
2023-05-08T10:14:02.192Z,99234.66
2023-05-08T10:16:09.095Z,99234.34
2023-05-08T10:18:20.518Z,99240.47
2023-05-08T10:20:30.505Z,99231.91
2023-05-08T10:22:40.041Z,99237.53
2023-05-08T10:24:50.594Z,99233.34
2023-05-08T10:27:06.271Z,99239.50
2023-05-08T10:29:20.800Z,99236.38
2023-05-08T10:31:31.288Z,99236.19
2023-05-08T10:33:43.146Z,99228.75
2023-05-08T10:35:48.808Z,99234.94
2023-05-08T10:37:54.949Z,99227.03
2023-05-08T10:40:01.213Z,99230.22
2023-05-08T10:42:08.031Z,99230.78
2023-05-08T10:44:13.740Z,99228.72
2023-05-08T10:46:36.858Z,99229.81
2023-05-08T10:48:56.920Z,99228.59
2023-05-08T10:51:12.279Z,99231.34
2023-05-08T10:53:23.488Z,99232.78
2023-05-08T10:55:33.673Z,99231.66
2023-05-08T10:57:39.210Z,99227.09
2023-05-08T10:59:48.709Z,99229.19
2023-05-08T11:01:53.991Z,99225.97
2023-05-08T11:04:01.857Z,99231.22
2023-05-08T11:06:07.685Z,99224.50
2023-05-08T11:08:19.363Z,99224.53
2023-05-08T11:10:32.416Z,99228.19
2023-05-08T11:12:38.281Z,99221.28
2023-05-08T11:14:45.754Z,99227.50
2023-05-08T11:17:11.290Z,99221.31
2023-05-08T11:19:23.224Z,99222.91
2023-05-08T11:21:28.272Z,99220.88
2023-05-08T11:23:34.318Z,99224.13
2023-05-08T11:25:46.285Z,99219.91
2023-05-08T11:28:12.980Z,99216.78
2023-05-08T11:30:27.093Z,99220.75
2023-05-08T11:33:17.921Z,99226.34
2023-05-08T11:35:45.078Z,99213.00
2023-05-08T11:38:21.400Z,99221.94
2023-05-08T11:40:53.310Z,99215.44
2023-05-08T11:42:59.554Z,99213.38
2023-05-08T11:45:09.394Z,99213.13
2023-05-08T11:47:21.881Z,99213.25
2023-05-08T11:49:30.261Z,99212.75
2023-05-08T11:51:45.013Z,99208.59
2023-05-08T11:53:50.610Z,99213.41
2023-05-08T11:55:57.090Z,99217.84
2023-05-08T11:58:02.116Z,99215.13
2023-05-08T12:00:09.103Z,99221.34
2023-05-08T12:02:14.148Z,99215.72
2023-05-08T12:04:19.369Z,99210.38
2023-05-08T12:06:24.781Z,99213.06
2023-05-08T12:08:32.477Z,99212.22
2023-05-08T12:10:45.028Z,99218.50
2023-05-08T12:12:51.770Z,99215.19
2023-05-08T12:14:57.106Z,99215.63
2023-05-08T12:17:02.521Z,99218.13
2023-05-08T12:19:13.640Z,99213.25
2023-05-08T12:21:18.929Z,99213.25
2023-05-08T12:23:24.062Z,99208.16
2023-05-08T12:25:31.985Z,99214.75
2023-05-08T12:27:37.102Z,99217.88
2023-05-08T12:29:42.118Z,99218.94
2023-05-08T12:31:47.270Z,99210.34
2023-05-08T12:33:52.622Z,99215.44
2023-05-08T12:35:58.526Z,99211.97
2023-05-08T12:38:09.855Z,99210.47
2023-05-08T12:40:32.141Z,99211.00
2023-05-08T12:42:46.966Z,99211.00
2023-05-08T12:44:56.447Z,99206.50
2023-05-08T12:47:01.835Z,99207.25
2023-05-08T12:49:10.591Z,99212.66
2023-05-08T12:51:15.832Z,99207.25
2023-05-08T12:53:23.199Z,99201.38
2023-05-08T12:55:33.003Z,99202.56
2023-05-08T12:57:40.433Z,99212.47
2023-05-08T12:59:47.261Z,99206.75
2023-05-08T13:01:53.925Z,99209.09
2023-05-08T13:04:02.193Z,99209.16
2023-05-08T13:06:08.974Z,99210.03
2023-05-08T13:08:14.581Z,99214.81
2023-05-08T13:10:23.481Z,99208.44
2023-05-08T13:12:32.394Z,99208.13
2023-05-08T13:14:37.686Z,99211.44
2023-05-08T13:16:48.090Z,99203.50
2023-05-08T13:18:53.214Z,99202.94
2023-05-08T13:20:58.504Z,99201.53
2023-05-08T13:23:03.836Z,99200.19
2023-05-08T13:25:11.273Z,99197.00
2023-05-08T13:27:16.508Z,99192.25
2023-05-08T13:29:24.391Z,99191.22
2023-05-08T13:31:29.428Z,99180.47
2023-05-08T13:33:34.716Z,99191.78
2023-05-08T13:35:39.825Z,99186.34
2023-05-08T13:37:44.862Z,99181.63
2023-05-08T13:39:49.919Z,99175.25
2023-05-08T13:41:54.933Z,99182.94
2023-05-08T13:43:59.958Z,99181.81
2023-05-08T13:46:08.236Z,99181.94
2023-05-08T13:48:13.335Z,99167.34
2023-05-08T13:50:21.963Z,99175.59
2023-05-08T13:52:29.456Z,99167.00
2023-05-08T13:54:34.460Z,99170.91
2023-05-08T13:56:39.557Z,99160.44
2023-05-08T13:58:44.596Z,99162.31
2023-05-08T14:00:50.061Z,99158.25
2023-05-08T14:02:57.855Z,99165.09
2023-05-08T14:05:03.042Z,99151.66
2023-05-08T14:07:08.588Z,99154.28
2023-05-08T14:09:13.635Z,99151.06
2023-05-08T14:11:18.666Z,99158.88
2023-05-08T14:13:24.096Z,99157.91
2023-05-08T14:15:36.418Z,99155.03
2023-05-08T14:17:43.207Z,99155.13
2023-05-08T14:19:50.892Z,99155.19
2023-05-08T14:21:56.014Z,99156.56
2023-05-08T14:24:01.415Z,99152.44
2023-05-08T14:26:06.658Z,99152.66
2023-05-08T14:28:11.924Z,99150.47
2023-05-08T14:30:17.788Z,99146.28
2023-05-08T14:32:22.940Z,99146.44
2023-05-08T14:34:28.172Z,99144.94
2023-05-08T14:36:35.891Z,99141.47
2023-05-08T14:38:41.469Z,99145.47
2023-05-08T14:40:46.518Z,99136.19
2023-05-08T14:42:51.801Z,99145.03
2023-05-08T14:44:58.092Z,99133.38
2023-05-08T14:47:03.256Z,99132.66
2023-05-08T14:49:08.771Z,99136.41
2023-05-08T14:51:14.505Z,99128.22
2023-05-08T14:53:22.579Z,99132.31
2023-05-08T14:55:28.076Z,99125.13
2023-05-08T14:57:33.666Z,99128.28
2023-05-08T14:59:45.861Z,99123.06
2023-05-08T15:01:57.519Z,99115.28
2023-05-08T15:04:02.749Z,99122.13
2023-05-08T15:06:09.490Z,99118.22
2023-05-08T15:08:14.920Z,99116.59
2023-05-08T15:10:23.106Z,99117.47
2023-05-08T15:12:28.304Z,99105.94
2023-05-08T15:14:33.821Z,99108.50
2023-05-08T15:16:39.131Z,99116.66
2023-05-08T15:18:44.982Z,99113.53
2023-05-08T15:20:50.332Z,99111.09
2023-05-08T15:22:55.423Z,99105.41
2023-05-08T15:25:03.011Z,99095.59
2023-05-08T15:27:11.936Z,99098.03
2023-05-08T15:29:17.711Z,99093.78
2023-05-08T15:31:23.397Z,99077.88
2023-05-08T15:33:28.566Z,99081.72
2023-05-08T15:35:33.897Z,99067.25
2023-05-08T15:37:39.955Z,99068.16
2023-05-08T15:39:46.239Z,99065.09
2023-05-08T15:41:51.328Z,99058.84
2023-05-08T15:43:58.996Z,99063.81
2023-05-08T15:46:04.568Z,99050.75
2023-05-08T15:48:10.065Z,99065.25
2023-05-08T15:50:15.986Z,99060.78
2023-05-08T15:52:21.340Z,99059.06
2023-05-08T15:54:26.910Z,99063.03
2023-05-08T15:56:32.813Z,99073.63
2023-05-08T15:58:39.094Z,99072.75
2023-05-08T16:00:46.771Z,99076.69
2023-05-08T16:02:51.963Z,99069.03
2023-05-08T16:04:57.193Z,99072.47
2023-05-08T16:07:03.088Z,99074.84
2023-05-08T16:09:08.448Z,99076.41
2023-05-08T16:11:13.758Z,99071.59
2023-05-08T16:13:19.093Z,99074.47
2023-05-08T16:15:24.429Z,99070.38
2023-05-08T16:17:32.150Z,99075.66
2023-05-08T16:19:41.106Z,99072.06
2023-05-08T16:21:49.316Z,99081.06
2023-05-08T16:23:54.432Z,99079.50
2023-05-08T16:26:00.471Z,99079.19
2023-05-08T16:28:05.665Z,99075.25
2023-05-08T16:30:13.094Z,99077.09
2023-05-08T16:32:18.635Z,99084.56
2023-05-08T16:34:26.306Z,99083.50
2023-05-08T16:36:31.863Z,99090.28
2023-05-08T16:38:36.964Z,99082.38
2023-05-08T16:40:42.336Z,99080.97
2023-05-08T16:42:47.420Z,99089.56
2023-05-08T16:44:53.218Z,99094.03
2023-05-08T16:46:58.667Z,99091.00
2023-05-08T16:49:03.801Z,99083.69
2023-05-08T16:51:11.740Z,99077.03
2023-05-08T16:53:16.813Z,99080.34
2023-05-08T16:55:22.253Z,99071.34
2023-05-08T16:57:27.821Z,99073.88
2023-05-08T16:59:32.987Z,99077.66
2023-05-08T17:01:38.828Z,99065.72
2023-05-08T17:03:43.992Z,99065.84
2023-05-08T17:05:49.250Z,99074.72
2023-05-08T17:07:56.931Z,99069.25
2023-05-08T17:10:02.242Z,99071.97
2023-05-08T17:12:08.426Z,99069.81
2023-05-08T17:14:13.492Z,99073.34
2023-05-08T17:16:20.481Z,99069.94
2023-05-08T17:18:25.795Z,99076.78
2023-05-08T17:20:31.371Z,99073.66
2023-05-08T17:22:36.681Z,99070.75
2023-05-08T17:24:44.349Z,99071.97
2023-05-08T17:26:49.444Z,99071.53
2023-05-08T17:28:54.491Z,99080.09
2023-05-08T17:30:59.706Z,99076.25
2023-05-08T17:33:05.057Z,99075.81
2023-05-08T17:35:11.976Z,99081.13
2023-05-08T17:37:17.094Z,99086.72
2023-05-08T17:39:22.288Z,99092.63
2023-05-08T17:41:29.965Z,99091.22
2023-05-08T17:43:35.477Z,99095.91
2023-05-08T17:45:40.770Z,99095.81
2023-05-08T17:47:46.059Z,99097.88
2023-05-08T17:49:51.132Z,99101.13
2023-05-08T17:51:56.193Z,99105.16
2023-05-08T17:54:01.433Z,99101.53
2023-05-08T17:56:06.662Z,99100.69
2023-05-08T17:58:14.480Z,99099.06
2023-05-08T18:00:20.512Z,99092.84
2023-05-08T18:02:25.863Z,99097.78
2023-05-08T18:04:30.979Z,99096.78
2023-05-08T18:06:36.084Z,99102.41
2023-05-08T18:08:42.181Z,99110.19
2023-05-08T18:10:47.354Z,99110.69
2023-05-08T18:12:52.648Z,99103.28
2023-05-08T18:15:01.006Z,99110.59
2023-05-08T18:17:06.052Z,99116.03
2023-05-08T18:19:11.100Z,99121.00
2023-05-08T18:21:16.726Z,99129.91
2023-05-08T18:23:22.322Z,99123.75
2023-05-08T18:25:28.106Z,99130.16
2023-05-08T18:27:34.549Z,99126.09
2023-05-08T18:29:39.830Z,99131.66
2023-05-08T18:31:47.471Z,99140.56
2023-05-08T18:33:53.313Z,99137.88
2023-05-08T18:35:59.270Z,99138.00
2023-05-08T18:38:04.325Z,99139.50
2023-05-08T18:40:13.150Z,99129.16
2023-05-08T18:42:18.738Z,99134.34
2023-05-08T18:44:24.573Z,99133.72
2023-05-08T18:46:29.723Z,99134.63
2023-05-08T18:48:37.692Z,99131.59
2023-05-08T18:50:42.941Z,99137.75
2023-05-08T18:52:48.193Z,99141.41
2023-05-08T18:54:54.366Z,99139.59
2023-05-08T18:56:59.557Z,99138.66
2023-05-08T18:59:04.680Z,99140.69
2023-05-08T19:01:10.244Z,99140.16
2023-05-08T19:03:15.417Z,99131.38
2023-05-08T19:05:23.895Z,99140.84
2023-05-08T19:07:29.110Z,99142.03
2023-05-08T19:09:34.197Z,99143.44
2023-05-08T19:11:39.363Z,99149.84
2023-05-08T19:13:44.627Z,99147.91
2023-05-08T19:15:49.754Z,99149.88
2023-05-08T19:17:55.007Z,99153.59
2023-05-08T19:20:00.062Z,99148.34
2023-05-08T19:22:07.727Z,99146.97
2023-05-08T19:24:14.194Z,99152.22
2023-05-08T19:26:19.389Z,99148.19
2023-05-08T19:28:24.427Z,99157.63
2023-05-08T19:30:29.486Z,99151.00
2023-05-08T19:32:34.634Z,99158.81
2023-05-08T19:34:39.812Z,99151.66
2023-05-08T19:36:45.194Z,99152.88
2023-05-08T19:38:52.816Z,99154.66
2023-05-08T19:40:58.150Z,99158.25
2023-05-08T19:43:03.281Z,99156.84
2023-05-08T19:45:10.161Z,99163.06
2023-05-08T19:47:15.936Z,99158.94
2023-05-08T19:49:21.187Z,99156.34
2023-05-08T19:51:26.875Z,99161.53
2023-05-08T19:53:31.909Z,99153.06
2023-05-08T19:55:39.825Z,99156.56
2023-05-08T19:57:45.190Z,99153.25
2023-05-08T19:59:50.273Z,99150.63
2023-05-08T20:01:55.616Z,99162.50
2023-05-08T20:04:01.147Z,99165.66
2023-05-08T20:06:06.426Z,99166.28
2023-05-08T20:08:11.849Z,99157.19
2023-05-08T20:10:17.101Z,99155.66
2023-05-08T20:12:24.867Z,99151.41
2023-05-08T20:14:29.912Z,99153.25
2023-05-08T20:16:35.117Z,99157.22
2023-05-08T20:18:40.395Z,99159.56
2023-05-08T20:20:46.220Z,99160.19
2023-05-08T20:22:51.537Z,99154.50
2023-05-08T20:24:56.600Z,99156.16
2023-05-08T20:27:01.879Z,99161.03
2023-05-08T20:29:09.830Z,99160.06
2023-05-08T20:31:14.968Z,99160.81
2023-05-08T20:33:20.848Z,99156.44
2023-05-08T20:35:25.970Z,99162.38
2023-05-08T20:37:31.055Z,99163.19
2023-05-08T20:39:36.537Z,99158.03
2023-05-08T20:41:41.955Z,99158.88
2023-05-08T20:43:47.270Z,99147.81
2023-05-08T20:45:54.987Z,99142.84
2023-05-08T20:48:00.128Z,99144.53
2023-05-08T20:50:05.445Z,99143.69
2023-05-08T20:52:10.538Z,99141.91
2023-05-08T20:54:15.646Z,99144.28
2023-05-08T20:56:21.856Z,99148.63
2023-05-08T20:58:27.169Z,99148.84
2023-05-08T21:00:34.445Z,99142.84
2023-05-08T21:02:42.910Z,99141.91
2023-05-08T21:04:48.062Z,99140.94
2023-05-08T21:06:53.421Z,99149.34
2023-05-08T21:08:58.497Z,99147.66
2023-05-08T21:11:04.742Z,99146.91
2023-05-08T21:13:09.870Z,99149.34
2023-05-08T21:15:15.459Z,99143.47
2023-05-08T21:17:20.750Z,99147.81
2023-05-08T21:19:28.786Z,99139.38
2023-05-08T21:21:34.777Z,99138.63
2023-05-08T21:23:39.834Z,99136.13
2023-05-08T21:25:44.908Z,99141.16
2023-05-08T21:27:49.951Z,99137.81
2023-05-08T21:29:55.379Z,99145.44
2023-05-08T21:32:01.202Z,99142.22
2023-05-08T21:34:07.115Z,99142.41
2023-05-08T21:36:15.327Z,99133.44
2023-05-08T21:38:20.430Z,99132.81
2023-05-08T21:40:25.768Z,99139.81
2023-05-08T21:42:30.861Z,99135.06
2023-05-08T21:44:35.945Z,99136.97
2023-05-08T21:46:41.203Z,99130.44
2023-05-08T21:48:46.308Z,99130.53
2023-05-08T21:50:51.615Z,99128.16
2023-05-08T21:52:59.307Z,99128.25
2023-05-08T21:55:08.598Z,99131.91
2023-05-08T21:57:13.771Z,99126.06
2023-05-08T21:59:19.088Z,99132.09
2023-05-08T22:01:24.257Z,99128.06
2023-05-08T22:03:30.787Z,99119.03
2023-05-08T22:05:36.001Z,99125.22
2023-05-08T22:07:41.137Z,99122.19
2023-05-08T22:09:48.787Z,99122.19
2023-05-08T22:11:54.377Z,99126.53
2023-05-08T22:13:59.430Z,99125.97
2023-05-08T22:16:04.771Z,99124.38
2023-05-08T22:18:09.893Z,99119.22
2023-05-08T22:20:16.673Z,99124.44
2023-05-08T22:22:22.040Z,99114.69
2023-05-08T22:24:28.805Z,99119.19
2023-05-08T22:26:36.535Z,99116.84
2023-05-08T22:28:41.914Z,99110.88
2023-05-08T22:30:47.016Z,99113.69
2023-05-08T22:32:57.662Z,99109.84
2023-05-08T22:35:02.954Z,99099.34
2023-05-08T22:37:08.273Z,99106.97
2023-05-08T22:39:13.382Z,99103.56
2023-05-08T22:41:18.451Z,99104.28
2023-05-08T22:43:26.367Z,99099.34
2023-05-08T22:45:31.754Z,99101.91
2023-05-08T22:47:37.927Z,99099.72
2023-05-08T22:49:44.077Z,99108.47
2023-05-08T22:51:50.510Z,99103.69
2023-05-08T22:53:56.322Z,99100.47
2023-05-08T22:56:01.381Z,99094.69
2023-05-08T22:58:07.132Z,99098.97
2023-05-08T23:00:16.713Z,99093.94
2023-05-08T23:02:22.009Z,99090.69
2023-05-08T23:04:27.096Z,99094.13
2023-05-08T23:06:32.641Z,99095.94
2023-05-08T23:08:37.999Z,99092.56
2023-05-08T23:10:43.240Z,99089.03
2023-05-08T23:12:48.494Z,99090.59
2023-05-08T23:14:53.639Z,99084.78
2023-05-08T23:17:01.344Z,99082.41
2023-05-08T23:19:07.747Z,99082.47
2023-05-08T23:21:12.867Z,99080.97
2023-05-08T23:23:17.946Z,99077.44
2023-05-08T23:25:23.041Z,99071.28
2023-05-08T23:27:29.028Z,99066.84
2023-05-08T23:29:34.632Z,99065.34
2023-05-08T23:31:39.736Z,99058.91
2023-05-08T23:33:47.449Z,99053.13
2023-05-08T23:35:52.517Z,99056.09
2023-05-08T23:37:57.568Z,99053.78
2023-05-08T23:40:03.170Z,99049.69
2023-05-08T23:42:08.441Z,99054.66
2023-05-08T23:44:13.487Z,99048.84
2023-05-08T23:46:18.627Z,99044.66
2023-05-08T23:48:23.864Z,99042.22
2023-05-08T23:50:31.909Z,99042.34
2023-05-08T23:52:37.054Z,99034.88
2023-05-08T23:54:42.332Z,99044.25
2023-05-08T23:56:47.447Z,99035.97
2023-05-08T23:58:52.541Z,99038.47
